臺北終端管制區 - 桃園北區雷達席

METAR RCTP 270030Z 01010KT 340V040 8000 -RA BR FEW003 BKN005 BKN010 15/14 Q1016 NOSIG RMK A3002=

站台狀態:Offline
最後更新:2021-02-27 08:30:01